Time;durP1;ratioP1;P1;durP2;ratioP2;P2;SDS_P1;SDS_P2;PMS_P1;PMS_P2;Temp;Humidity;BMP_temperature;BMP_pressure;BME280_temperature;BME280_humidity;BME280_pressure;Samples;Min_cycle;Max_cycle;Signal;HPM_P1;HPM_P2
2021/07/16 00:01:35;;;;;;;20.92;11.50;;;;;;;19.90;73.41;99523.28;5052038;28;20040;-77
2021/07/16 00:04:01;;;;;;;23.85;12.48;;;;;;;19.84;73.38;99519.97;5050750;28;20165;-77
2021/07/16 00:06:27;;;;;;;18.35;10.70;;;;;;;19.85;73.58;99519.03;5050638;28;20040;-78
2021/07/16 00:08:54;;;;;;;19.45;10.98;;;;;;;19.75;73.70;99509.88;5052177;28;20512;-76
2021/07/16 00:11:19;;;;;;;20.40;11.00;;;;;;;19.71;73.68;99513.63;5051423;28;20135;-76
2021/07/16 00:13:45;;;;;;;18.90;12.05;;;;;;;19.65;73.94;99506.03;5052090;28;20144;-78
2021/07/16 00:16:12;;;;;;;17.48;11.43;;;;;;;19.71;73.76;99518.91;5051948;28;20040;-77
2021/07/16 00:18:38;;;;;;;17.05;10.57;;;;;;;19.67;73.98;99522.63;5053067;28;20028;-77
2021/07/16 00:21:04;;;;;;;16.65;10.82;;;;;;;19.64;74.02;99528.06;5053203;28;20120;-78
2021/07/16 00:23:31;;;;;;;18.55;12.00;;;;;;;19.50;73.94;99505.88;5034397;28;20044;-76
2021/07/16 00:26:02;;;;;;;21.38;11.13;;;;;;;19.58;74.21;99529.25;5050292;28;20181;-77
2021/07/16 00:28:28;;;;;;;20.48;12.20;;;;;;;19.36;74.14;99503.06;5049979;28;20040;-76
2021/07/16 00:30:56;;;;;;;17.88;10.88;;;;;;;19.45;74.33;99520.22;5050502;28;20060;-78
2021/07/16 00:33:22;;;;;;;16.60;11.38;;;;;;;19.36;74.36;99508.34;5050751;28;20526;-76
2021/07/16 00:35:48;;;;;;;15.35;11.38;;;;;;;19.37;74.48;99510.91;5050807;28;20048;-77
2021/07/16 00:38:14;;;;;;;14.88;11.68;;;;;;;19.36;74.33;99518.91;5054637;28;20462;-76
2021/07/16 00:40:41;;;;;;;16.35;10.93;;;;;;;19.25;74.45;99503.59;5068787;28;20041;-77
2021/07/16 00:43:07;;;;;;;22.02;12.38;;;;;;;19.34;74.78;99526.03;5073806;28;20128;-78
2021/07/16 00:45:34;;;;;;;27.10;12.27;;;;;;;19.31;74.89;99520.94;5053263;28;20048;-77
2021/07/16 00:48:00;;;;;;;23.67;11.68;;;;;;;19.26;75.06;99524.66;5053094;28;20102;-77
2021/07/16 00:50:33;;;;;;;17.73;11.55;;;;;;;19.22;75.15;99517.81;5061008;28;20076;-75
2021/07/16 00:53:00;;;;;;;18.48;11.13;;;;;;;19.18;75.31;99521.53;5052996;28;20036;-77
2021/07/16 00:55:26;;;;;;;15.65;10.88;;;;;;;19.04;75.28;99503.72;5051010;28;20143;-76
2021/07/16 00:57:54;;;;;;;17.38;11.27;;;;;;;19.09;75.31;99517.56;5054315;28;20033;-76
2021/07/16 01:00:20;;;;;;;23.20;11.18;;;;;;;19.01;75.39;99493.34;5057318;28;20119;-77
2021/07/16 01:02:46;;;;;;;23.17;11.52;;;;;;;18.92;75.62;99493.75;5026974;28;20076;-77
2021/07/16 01:05:16;;;;;;;16.05;10.18;;;;;;;19.01;75.66;99508.31;5059171;28;20041;-76
2021/07/16 01:07:43;;;;;;;20.02;11.52;;;;;;;18.92;75.54;99499.88;5058931;28;20045;-76
2021/07/16 01:10:10;;;;;;;17.73;11.50;;;;;;;18.76;75.64;99476.03;5060524;28;20036;-75
2021/07/16 01:12:38;;;;;;;20.48;12.20;;;;;;;18.94;75.96;99508.56;5056629;28;20100;-76
2021/07/16 01:15:06;;;;;;;27.00;11.98;;;;;;;18.92;75.88;99502.50;5056591;28;20044;-78
2021/07/16 01:17:32;;;;;;;23.45;11.32;;;;;;;18.88;75.90;99500.94;5051136;28;20056;-78
2021/07/16 01:20:00;;;;;;;19.83;11.13;;;;;;;18.88;75.96;99502.75;5021316;28;20037;-79
2021/07/16 01:22:29;;;;;;;22.80;11.23;;;;;;;18.72;76.12;99481.53;5031486;28;20041;-77
2021/07/16 01:24:58;;;;;;;20.95;10.15;;;;;;;18.81;76.08;99503.03;5031697;28;20038;-76
2021/07/16 01:27:25;;;;;;;19.85;11.07;;;;;;;18.74;76.18;99487.59;5031454;28;20045;-78
2021/07/16 01:29:52;;;;;;;18.63;10.90;;;;;;;18.73;76.13;99489.38;5047074;28;20463;-77
2021/07/16 01:32:18;;;;;;;18.00;10.77;;;;;;;18.72;76.25;99481.53;5033457;28;20051;-77
2021/07/16 01:34:45;;;;;;;19.10;10.30;;;;;;;18.72;76.34;99481.53;5051083;28;20044;-78
2021/07/16 01:37:11;;;;;;;13.90;9.90;;;;;;;18.73;76.40;99484.13;5051124;28;20530;-78
2021/07/16 01:39:39;;;;;;;18.73;11.38;;;;;;;18.85;76.47;99493.22;5052224;28;20040;-77
2021/07/16 01:42:09;;;;;;;14.07;9.73;;;;;;;18.78;76.30;99476.81;5051356;28;20044;-77
2021/07/16 01:44:38;;;;;;;16.52;11.40;;;;;;;18.90;76.26;99495.63;5035177;28;20509;-76
2021/07/16 01:47:04;;;;;;;15.95;11.48;;;;;;;18.86;76.35;99491.41;5052705;28;20401;-77
2021/07/16 01:49:30;;;;;;;20.13;11.77;;;;;;;18.88;76.27;99493.03;5051410;28;20703;-78
2021/07/16 01:51:56;;;;;;;16.25;10.50;;;;;;;18.98;76.39;99506.66;5034461;28;20047;-78
2021/07/16 01:54:22;;;;;;;18.08;9.95;;;;;;;18.82;76.36;99478.38;5053198;28;20119;-76
2021/07/16 01:56:49;;;;;;;14.95;9.40;;;;;;;18.94;76.16;99503.28;5056689;28;20072;-77
2021/07/16 01:59:15;;;;;;;16.20;10.07;;;;;;;18.98;75.91;99513.72;5062500;28;20037;-77
2021/07/16 02:01:41;;;;;;;23.77;11.55;;;;;;;18.94;75.96;99503.28;5035995;28;20132;-77
2021/07/16 02:04:08;;;;;;;21.30;10.70;;;;;;;19.02;76.05;99500.31;5053213;28;20044;-76
2021/07/16 02:06:35;;;;;;;14.48;9.77;;;;;;;19.08;76.09;99505.28;5036035;28;20044;-76
2021/07/16 02:09:01;;;;;;;19.15;10.18;;;;;;;19.07;76.04;99486.94;5054483;28;20044;-76
2021/07/16 02:11:28;;;;;;;18.63;10.90;;;;;;;19.13;75.84;99489.25;5052774;28;20033;-78
2021/07/16 02:13:55;;;;;;;16.60;10.27;;;;;;;19.32;75.73;99506.78;5053939;28;20052;-76
2021/07/16 02:16:22;;;;;;;17.67;11.38;;;;;;;19.39;75.67;99502.91;5053586;28;20079;-77
2021/07/16 02:18:52;;;;;;;23.42;12.80;;;;;;;19.46;75.52;99504.31;5053628;28;20098;-76
2021/07/16 02:21:19;;;;;;;19.50;11.52;;;;;;;19.52;75.60;99503.16;5053192;28;20040;-76
2021/07/16 02:23:47;;;;;;;17.67;11.20;;;;;;;19.59;75.12;99508.97;5035621;28;20037;-77
2021/07/16 02:26:13;;;;;;;23.38;11.82;;;;;;;19.57;75.35;99501.97;5036084;28;20041;-79
2021/07/16 02:28:40;;;;;;;16.27;10.80;;;;;;;19.71;75.31;99503.91;5053074;28;20047;-77
2021/07/16 02:31:12;;;;;;;17.42;11.30;;;;;;;19.79;75.04;99507.97;5087170;28;20060;-77
2021/07/16 02:33:38;;;;;;;;;;;;;;;19.86;75.08;99504.91;5064719;28;20128;-77
2021/07/16 02:36:07;;;;;;;17.05;11.25;;;;;;;19.91;74.76;99494.13;5057501;28;19940;-77
2021/07/16 02:38:33;;;;;;;21.65;11.57;;;;;;;20.03;74.80;99497.91;5053762;28;20451;-77
2021/07/16 02:40:59;;;;;;;20.67;12.55;;;;;;;20.09;74.81;99496.72;5052316;28;20447;-76
2021/07/16 02:43:25;;;;;;;22.73;12.38;;;;;;;20.10;74.66;99480.81;5035061;28;20550;-77
2021/07/16 02:45:53;;;;;;;17.55;12.73;;;;;;;20.27;74.57;99481.69;5052898;28;20140;-79
2021/07/16 02:48:20;;;;;;;19.50;12.25;;;;;;;20.34;74.48;99469.88;5051970;28;20115;-76
2021/07/16 02:50:47;;;;;;;19.13;12.40;;;;;;;20.58;74.17;99493.22;5052993;28;20087;-76
2021/07/16 02:53:16;;;;;;;19.50;12.05;;;;;;;20.71;74.37;99499.53;5051579;28;20044;-76
2021/07/16 02:55:42;;;;;;;20.30;13.60;;;;;;;20.83;73.86;99492.72;5053163;28;20459;-76
2021/07/16 02:58:09;;;;;;;23.67;16.10;;;;;;;20.84;73.96;99480.38;5052240;28;20071;-77
2021/07/16 03:00:36;;;;;;;22.13;16.60;;;;;;;21.05;73.64;99495.03;5052317;28;20032;-77
2021/07/16 03:03:03;;;;;;;23.75;16.80;;;;;;;21.14;73.54;99474.25;5052621;28;20053;-77
2021/07/16 03:05:31;;;;;;;23.33;15.73;;;;;;;21.26;73.24;99468.25;5045888;28;20039;-76
2021/07/16 03:07:58;;;;;;;29.40;16.38;;;;;;;21.52;72.70;99489.66;5054059;28;20099;-78
2021/07/16 03:10:26;;;;;;;26.85;18.77;;;;;;;21.57;72.74;99482.31;5034596;28;20051;-81
2021/07/16 03:12:54;;;;;;;21.20;15.15;;;;;;;21.77;72.52;99494.41;5052831;28;20040;-78
2021/07/16 03:15:23;;;;;;;16.58;12.90;;;;;;;21.93;72.06;99498.75;5051669;28;20409;-77
2021/07/16 03:17:49;;;;;;;18.17;12.45;;;;;;;22.07;71.58;99498.75;5055399;28;20049;-77
2021/07/16 03:20:18;;;;;;;17.05;11.98;;;;;;;22.14;71.53;99490.41;5071077;28;20072;-78
2021/07/16 03:22:44;;;;;;;18.65;13.45;;;;;;;22.36;71.14;99490.78;5054916;28;20049;-78
2021/07/16 03:25:13;;;;;;;16.35;13.02;;;;;;;22.52;70.95;99487.19;5053789;28;20041;-81
2021/07/16 03:27:39;;;;;;;15.85;12.13;;;;;;;22.69;70.71;99496.72;5055254;28;20037;-80
2021/07/16 03:30:09;;;;;;;18.08;11.55;;;;;;;22.88;70.39;99504.34;5055437;28;20065;-79
2021/07/16 03:32:36;;;;;;;17.42;12.52;;;;;;;23.02;69.99;99498.16;5055008;28;20045;-79
2021/07/16 03:35:04;;;;;;;21.27;12.63;;;;;;;23.12;69.29;99495.72;5055558;28;20040;-80
2021/07/16 03:37:37;;;;;;;21.55;13.20;;;;;;;23.27;68.75;99493.91;5054366;28;20515;-84
2021/07/16 03:40:06;;;;;;;18.77;13.60;;;;;;;23.46;68.26;99507.63;5052532;28;20055;-82
2021/07/16 03:42:35;;;;;;;21.30;14.18;;;;;;;23.37;68.11;99465.78;5036417;28;20094;-84
2021/07/16 03:45:06;;;;;;;26.83;18.23;;;;;;;23.79;67.39;99507.22;5053907;28;20056;-84
2021/07/16 03:47:35;;;;;;;27.90;19.83;;;;;;;23.65;67.15;99469.19;5053491;28;20127;-84
2021/07/16 03:50:04;;;;;;;18.65;12.35;;;;;;;23.80;66.83;99467.31;5054746;28;20064;-82
2021/07/16 03:52:50;;;;;;;19.33;12.90;;;;;;;23.56;66.39;99390.16;5055391;28;20508;-83
2021/07/16 03:55:32;;;;;;;22.98;15.73;;;;;;;24.26;65.46;99487.16;5060978;28;20059;-84
2021/07/16 03:58:00;;;;;;;19.38;13.98;;;;;;;24.43;65.25;99485.94;5043404;28;20052;-82
2021/07/16 04:00:31;;;;;;;20.98;13.90;;;;;;;24.24;64.93;99429.75;5057482;28;20108;-82
2021/07/16 04:03:19;;;;;;;24.92;17.45;;;;;;;24.61;64.25;99473.09;5062613;28;20058;-84
2021/07/16 04:05:53;;;;;;;29.17;20.50;;;;;;;24.42;63.75;99393.00;5057879;28;20029;-84
2021/07/16 04:08:21;;;;;;;24.38;16.10;;;;;;;25.32;63.60;99524.78;5044553;28;20017;-83
2021/07/16 04:10:47;;;;;;;22.05;15.18;;;;;;;24.72;62.95;99392.56;5076647;28;20025;-84
2021/07/16 04:13:18;;;;;;;31.20;21.90;;;;;;;24.76;62.23;99379.91;5077114;28;20021;-82
2021/07/16 04:15:44;;;;;;;33.97;23.85;;;;;;;25.63;61.95;99485.19;5038228;28;20049;-83
2021/07/16 04:18:16;;;;;;;29.67;19.27;;;;;;;25.89;61.36;99504.50;5066839;28;20041;-82
2021/07/16 04:20:43;;;;;;;28.10;20.92;;;;;;;25.53;61.31;99429.13;5063961;28;20078;-82
2021/07/16 04:23:19;;;;;;;32.55;21.10;;;;;;;25.52;60.64;99393.66;5066867;28;20037;-83
2021/07/16 04:25:49;;;;;;;26.58;19.70;;;;;;;25.75;60.30;99388.34;5046444;28;20037;-82
2021/07/16 04:28:22;;;;;;;32.95;24.30;;;;;;;26.65;59.68;99521.72;5054194;28;20075;-83
2021/07/16 04:30:57;;;;;;;33.08;20.73;;;;;;;26.31;58.92;99431.94;5037684;28;20053;-83
2021/07/16 04:33:33;;;;;;;32.55;22.77;;;;;;;26.39;58.60;99408.16;5022228;28;20036;-84
2021/07/16 04:35:59;;;;;;;27.58;20.48;;;;;;;26.76;58.29;99436.28;5039568;28;20480;-83
2021/07/16 04:38:29;;;;;;;30.88;21.73;;;;;;;26.63;58.09;99387.59;5057132;28;20048;-82
2021/07/16 04:41:08;;;;;;;23.00;17.17;;;;;;;26.83;57.43;99391.28;5036439;28;20067;-84
2021/07/16 04:43:38;;;;;;;35.25;24.98;;;;;;;27.68;57.33;99507.03;5037319;28;20045;-85
2021/07/16 04:46:04;;;;;;;27.50;18.83;;;;;;;27.81;56.94;99498.81;5054477;28;20045;-85
2021/07/16 04:48:31;;;;;;;38.20;25.58;;;;;;;27.44;56.44;99413.78;5034608;28;20172;-84
2021/07/16 04:51:05;;;;;;;26.30;19.15;;;;;;;28.00;55.80;99482.03;5051196;28;20045;-83
2021/07/16 04:53:42;;;;;;;16.40;13.45;;;;;;;27.72;55.54;99417.63;5051530;28;20064;-84
2021/07/16 04:56:08;;;;;;;21.55;14.02;;;;;;;27.85;54.89;99417.41;5034055;28;20128;-84
2021/07/16 04:58:37;;;;;;;19.17;12.68;;;;;;;28.32;54.18;99478.38;5018198;28;20405;-83
2021/07/16 05:01:13;;;;;;;17.00;12.98;;;;;;;27.98;53.39;99394.91;5036995;28;20265;-83
2021/07/16 05:03:58;;;;;;;18.98;15.30;;;;;;;28.85;53.22;99517.38;5057897;28;20493;-83
2021/07/16 05:10:49;;;;;;;20.58;16.77;;;;;;;28.83;52.05;99423.00;5018194;28;20124;-85
2021/07/16 05:18:10;;;;;;;14.98;9.95;;;;;;;29.46;50.75;99485.16;5008663;28;20178;-83
2021/07/16 05:21:14;;;;;;;26.38;18.70;;;;;;;29.79;50.74;99520.50;5046844;28;20044;-82
2021/07/16 05:24:16;;;;;;;25.88;16.48;;;;;;;29.94;49.70;99507.44;5041220;28;20047;-84
2021/07/16 05:26:52;;;;;;;15.55;9.68;;;;;;;29.40;49.40;99414.22;5037696;28;20053;-84
2021/07/16 05:29:27;;;;;;;16.52;9.90;;;;;;;29.43;48.62;99392.50;5069128;28;20021;-82
2021/07/16 05:32:00;;;;;;;12.07;10.02;;;;;;;30.27;48.42;99512.44;5075410;28;20424;-81
2021/07/16 05:34:32;;;;;;;15.18;10.00;;;;;;;30.38;48.08;99504.22;5045839;28;20051;-81
2021/07/16 05:36:58;;;;;;;14.75;9.40;;;;;;;30.73;47.46;99521.41;5043394;28;20044;-80
2021/07/16 05:39:40;;;;;;;18.98;9.52;;;;;;;30.75;46.84;99497.09;5059585;28;20036;-84
2021/07/16 05:42:13;;;;;;;11.20;9.15;;;;;;;30.98;46.23;99515.47;5042059;28;20041;-83
2021/07/16 05:44:47;;;;;;;13.32;9.23;;;;;;;30.33;45.84;99377.69;5056356;28;20076;-85
2021/07/16 05:47:47;;;;;;;14.30;10.80;;;;;;;30.65;45.34;99387.13;5037846;28;20056;-83
2021/07/16 05:51:02;;;;;;;11.70;8.20;;;;;;;31.44;45.01;99395.28;5024317;28;20045;-83
2021/07/16 05:53:34;;;;;;;13.98;9.55;;;;;;;33.37;44.33;99509.66;5018493;28;20497;-84
2021/07/16 05:56:40;;;;;;;13.35;8.25;;;;;;;35.66;40.67;99512.47;4982104;28;20046;-86
2021/07/16 05:59:39;;;;;;;13.43;8.27;;;;;;;38.04;36.50;99489.38;5034462;28;20080;-83
2021/07/16 06:02:22;;;;;;;20.20;12.77;;;;;;;39.35;33.60;99454.81;5024229;28;20032;-85
2021/07/16 06:05:13;;;;;;;20.63;13.02;;;;;;;40.21;31.39;99393.03;5026346;28;20048;-84
2021/07/16 06:30:58;;;;;;;;;;;;;;;;;;;;;
2021/07/16 06:39:30;;;;;;;11.63;7.03;;;;;;;49.61;17.60;99395.59;4689502;30;20151;-82
2021/07/16 06:42:25;;;;;;;14.68;7.75;;;;;;;50.67;16.52;99488.44;4688263;30;20112;-84
2021/07/16 06:45:23;;;;;;;14.02;7.15;;;;;;;51.10;15.79;99473.97;4728205;29;20118;-84
2021/07/16 06:47:49;;;;;;;9.98;7.30;;;;;;;51.14;15.84;99463.16;4878694;29;20166;-85
2021/07/16 06:50:20;;;;;;;;;;;;;;;51.63;15.04;99488.97;4879056;29;20046;-82
2021/07/16 06:53:37;;;;;;;9.10;8.27;;;;;;;52.08;14.52;99434.06;4937100;28;19925;-82
2021/07/16 06:56:45;;;;;;;19.83;15.02;;;;;;;53.18;13.70;99481.13;4968577;28;20049;-81
2021/07/16 06:59:26;;;;;;;10.93;7.65;;;;;;;53.09;13.27;99421.88;4974708;28;20038;-83
2021/07/16 07:07:13;;;;;;;8.43;7.63;;;;;;;54.08;12.39;99485.47;4876849;29;20048;-84
2021/07/16 07:10:54;;;;;;;17.58;15.77;;;;;;;54.57;12.14;99482.13;4888080;29;20087;-85
2021/07/16 07:13:21;;;;;;;58.90;17.83;;;;;;;55.17;11.88;99482.81;4874116;29;20044;-85
2021/07/16 07:15:50;;;;;;;12.68;11.35;;;;;;;55.43;11.79;99462.63;4899127;29;20064;-84
2021/07/16 07:22:56;;;;;;;;;;;;;;;;;;;;;
2021/07/16 07:25:31;;;;;;;7.88;7.10;;;;;;;55.15;11.61;99426.59;4953811;28;20062;-85
2021/07/16 07:28:21;;;;;;;10.40;7.88;;;;;;;55.26;10.99;99404.88;4911274;29;20050;-84
2021/07/16 07:41:45;;;;;;;10.98;10.05;;;;;;;56.35;9.90;99396.81;5035064;28;20038;-83
2021/07/16 07:45:11;;;;;;;14.25;8.35;;;;;;;56.78;9.39;99384.72;4980920;28;20429;-84
2021/07/16 07:47:58;;;;;;;8.18;7.00;;;;;;;57.94;9.56;99470.41;4936237;29;20044;-85
2021/07/16 07:51:01;;;;;;;12.05;10.85;;;;;;;58.03;9.58;99476.75;4934012;29;20423;-84
2021/07/16 07:53:42;;;;;;;12.88;11.77;;;;;;;57.89;9.24;99459.44;4959064;28;20064;-84
2021/07/16 08:04:58;;;;;;;11.07;10.05;;;;;;;58.11;8.70;99475.06;5013523;28;20092;-85
2021/07/16 08:09:22;;;;;;;15.00;7.55;;;;;;;57.45;8.34;99409.38;4964189;28;20049;-86
2021/07/16 08:12:16;;;;;;;11.05;7.88;;;;;;;58.45;8.49;99456.34;4916412;29;20126;-84
2021/07/16 08:14:59;;;;;;;8.13;7.50;;;;;;;58.69;7.87;99400.75;4936928;28;20051;-83
2021/07/16 08:17:48;;;;;;;8.20;7.55;;;;;;;58.48;7.93;99407.25;4977353;28;20152;-83
2021/07/16 08:20:57;;;;;;;8.18;7.47;;;;;;;58.28;7.62;99406.94;4965829;28;20070;-85
2021/07/16 08:24:07;;;;;;;7.97;7.40;;;;;;;58.11;8.16;99396.75;4976559;28;20593;-84
2021/07/16 08:27:35;;;;;;;8.95;8.05;;;;;;;58.51;7.66;99456.94;4934574;29;20058;-86
2021/07/16 08:30:17;;;;;;;9.95;8.65;;;;;;;57.88;8.37;99379.50;4882649;29;20172;-83
2021/07/16 08:32:48;;;;;;;8.73;7.88;;;;;;;57.78;8.76;99455.38;4927254;29;20051;-85
2021/07/16 08:35:18;;;;;;;8.18;7.63;;;;;;;57.55;8.43;99369.03;4936621;29;20067;-83
2021/07/16 08:37:59;;;;;;;8.57;7.88;;;;;;;58.44;7.89;99457.53;4940111;29;20055;-85
2021/07/16 08:40:25;;;;;;;9.02;8.23;;;;;;;58.76;7.70;99462.63;4954660;29;20027;-84
2021/07/16 08:43:04;;;;;;;9.35;8.55;;;;;;;58.82;7.71;99374.41;4975653;28;20126;-83
2021/07/16 08:45:54;;;;;;;8.48;7.88;;;;;;;59.48;7.74;99448.19;4995847;28;20039;-84
2021/07/16 08:48:37;;;;;;;8.68;7.85;;;;;;;58.64;7.22;99374.59;4994798;28;20050;-84
2021/07/16 08:51:15;;;;;;;9.10;8.20;;;;;;;59.30;6.58;99396.34;4995009;28;20023;-85
2021/07/16 08:53:57;;;;;;;9.38;8.50;;;;;;;59.88;7.36;99432.59;4979344;28;20161;-84
2021/07/16 08:56:51;;;;;;;9.55;8.73;;;;;;;59.80;6.76;99444.78;4980155;28;20099;-86
2021/07/16 08:59:50;;;;;;;8.80;8.18;;;;;;;59.64;6.90;99433.50;5002727;28;20049;-84
2021/07/16 09:02:48;;;;;;;9.15;8.45;;;;;;;59.96;7.03;99450.47;5002585;28;20056;-86
2021/07/16 09:05:39;;;;;;;9.23;8.57;;;;;;;59.76;6.87;99419.41;5023009;28;20053;-86
2021/07/16 09:16:28;;;;;;;9.80;8.85;;;;;;;57.90;7.68;99357.59;5008792;28;20050;-84
2021/07/16 09:19:00;;;;;;;10.35;8.27;;;;;;;56.35;8.77;99341.00;4975286;28;20512;-83
2021/07/16 09:22:10;;;;;;;9.63;8.65;;;;;;;56.71;8.37;99402.00;4991422;28;20548;-85
2021/07/16 09:25:29;;;;;;;9.25;8.32;;;;;;;56.49;9.16;99411.38;5013217;28;20046;-84
2021/07/16 09:28:29;;;;;;;9.10;8.40;;;;;;;57.24;8.18;99428.91;4976409;28;20046;-86
2021/07/16 09:31:38;;;;;;;10.02;9.15;;;;;;;58.01;8.50;99422.31;4994032;28;20046;-83
2021/07/16 09:34:11;;;;;;;10.05;8.75;;;;;;;58.47;7.67;99422.41;4991024;28;20045;-84
2021/07/16 09:36:53;;;;;;;9.20;8.57;;;;;;;58.02;7.35;99366.03;4992851;28;20157;-84
2021/07/16 09:44:46;;;;;;;8.88;8.20;;;;;;;58.89;7.57;99411.06;4893904;29;20049;-84
2021/07/16 09:52:17;;;;;;;10.25;9.38;;;;;;;57.10;8.18;99365.66;4957778;23;20035;-85
2021/07/16 09:55:20;;;;;;;9.40;8.55;;;;;;;55.92;9.19;99404.88;4968826;28;20058;-83
2021/07/16 09:59:14;;;;;;;;;;;;;;;;;;;;;
2021/07/16 10:02:33;;;;;;;9.07;8.32;;;;;;;56.21;8.57;99332.81;4870325;29;20048;-86
2021/07/16 10:05:24;;;;;;;8.98;8.20;;;;;;;56.77;8.58;99396.19;4917699;28;20068;-84
2021/07/16 10:07:54;;;;;;;9.00;8.40;;;;;;;55.78;8.54;99379.06;5005331;28;20052;-84
2021/07/16 10:10:28;;;;;;;9.20;8.32;;;;;;;53.53;9.75;99336.25;5004960;28;20048;-85
2021/07/16 10:12:58;;;;;;;9.82;9.05;;;;;;;50.95;10.54;99291.44;5006434;28;20049;-87
2021/07/16 10:15:25;;;;;;;9.48;8.20;;;;;;;49.20;12.26;99363.41;5009078;28;20508;-85
2021/07/16 10:18:00;;;;;;;9.32;8.52;;;;;;;47.91;13.35;99353.19;5025846;28;20061;-86
2021/07/16 10:20:32;;;;;;;9.10;8.30;;;;;;;46.56;13.97;99280.16;5033364;28;20092;-82
2021/07/16 10:22:59;;;;;;;8.75;7.97;;;;;;;46.82;14.45;99341.69;5040203;28;20053;-81
2021/07/16 10:25:28;;;;;;;10.02;9.13;;;;;;;46.82;14.83;99351.88;5034894;28;20104;-83
2021/07/16 10:28:01;;;;;;;9.50;8.60;;;;;;;48.09;13.99;99332.59;5022853;28;20045;-84
2021/07/16 10:30:38;;;;;;;9.07;8.20;;;;;;;49.76;12.81;99367.06;5019841;28;20041;-85
2021/07/16 10:33:06;;;;;;;9.07;8.27;;;;;;;50.10;12.41;99355.25;5003636;28;20103;-85
2021/07/16 10:35:45;;;;;;;8.52;7.65;;;;;;;49.17;12.97;99381.38;5004269;28;20538;-87
2021/07/16 10:38:34;;;;;;;10.70;8.57;;;;;;;47.26;14.07;99337.81;4987940;28;20041;-84
2021/07/16 10:41:32;;;;;;;9.18;8.48;;;;;;;46.06;15.06;99370.97;5024242;28;20456;-83
2021/07/16 10:44:02;;;;;;;9.55;8.63;;;;;;;45.06;15.86;99358.16;5007429;28;20428;-84
2021/07/16 10:46:52;;;;;;;8.77;7.97;;;;;;;43.58;16.53;99257.53;5019728;28;20099;-83
2021/07/16 10:49:54;;;;;;;9.80;8.30;;;;;;;42.92;17.19;99263.28;4990342;28;20424;-82
2021/07/16 10:52:46;;;;;;;9.00;8.20;;;;;;;42.87;18.05;99351.47;5019239;28;20049;-83
2021/07/16 10:55:35;;;;;;;10.07;8.70;;;;;;;42.48;17.83;99353.78;5037350;28;20524;-84
2021/07/16 10:58:43;;;;;;;10.38;8.82;;;;;;;42.18;18.23;99344.56;5005838;28;20045;-86
2021/07/16 11:01:27;;;;;;;11.85;9.27;;;;;;;41.34;18.59;99283.25;5007161;28;20044;-82
2021/07/16 11:03:53;;;;;;;9.73;8.82;;;;;;;41.12;19.10;99333.88;5027329;28;20065;-85
2021/07/16 11:06:51;;;;;;;12.13;10.52;;;;;;;40.86;19.50;99333.03;5022452;28;20052;-82
2021/07/16 11:09:52;;;;;;;12.80;11.60;;;;;;;40.41;19.89;99276.78;5023610;28;20136;-83
2021/07/16 11:12:31;;;;;;;13.43;12.13;;;;;;;40.81;19.66;99333.72;4912428;29;20423;-83
2021/07/16 11:15:04;;;;;;;13.17;11.43;;;;;;;40.38;19.78;99269.91;5029764;28;20045;-83
2021/07/16 11:17:39;;;;;;;13.60;11.75;;;;;;;40.24;20.52;99269.16;5020171;28;20041;-84
2021/07/16 11:20:14;;;;;;;11.68;10.48;;;;;;;40.48;20.03;99322.03;5005432;28;20049;-81
2021/07/16 11:22:59;;;;;;;12.30;10.38;;;;;;;39.94;20.80;99315.22;5000595;28;20034;-86
2021/07/16 11:25:29;;;;;;;12.20;9.93;;;;;;;39.26;20.58;99243.91;4969084;28;20037;-81
2021/07/16 11:27:56;;;;;;;10.90;9.10;;;;;;;39.26;21.07;99282.00;4999981;28;20547;-86
2021/07/16 11:33:26;;;;;;;11.57;10.48;;;;;;;38.99;21.27;99333.72;4983282;28;20135;-83
2021/07/16 11:35:59;;;;;;;13.45;11.70;;;;;;;38.78;21.31;99315.72;5022092;28;20048;-85
2021/07/16 11:38:34;;;;;;;11.75;10.55;;;;;;;38.63;20.81;99324.94;5008595;28;20081;-83
2021/07/16 11:41:09;;;;;;;20.60;18.63;;;;;;;38.13;21.61;99269.06;4993140;28;20057;-84
2021/07/16 11:43:54;;;;;;;17.13;15.38;;;;;;;37.78;21.85;99225.78;4990883;28;20041;-83
2021/07/16 11:46:52;;;;;;;16.90;15.23;;;;;;;37.49;22.63;99199.84;5020372;28;20067;-84
2021/07/16 11:49:56;;;;;;;11.70;10.57;;;;;;;37.82;22.62;99310.31;4973922;28;20052;-83
2021/07/16 11:52:36;;;;;;;20.35;18.25;;;;;;;37.02;22.20;99202.31;5019191;28;20053;-84
2021/07/16 11:55:08;;;;;;;20.80;18.55;;;;;;;37.20;22.74;99256.00;5002200;28;20120;-84
2021/07/16 11:58:20;;;;;;;20.30;16.15;;;;;;;37.11;22.55;99249.06;5001954;28;20044;-84
2021/07/16 12:00:47;;;;;;;23.58;18.40;;;;;;;36.87;22.66;99216.81;4980679;28;20046;-83
2021/07/16 12:03:21;;;;;;;16.83;13.82;;;;;;;37.13;22.84;99283.09;4995971;28;20053;-82
2021/07/16 12:05:48;;;;;;;13.38;10.90;;;;;;;37.09;23.28;99276.38;4984502;28;20049;-82
2021/07/16 12:08:27;;;;;;;16.75;14.02;;;;;;;36.73;23.46;99242.16;5001615;28;20054;-86
2021/07/16 12:12:08;;;;;;;16.57;14.53;;;;;;;36.98;24.00;99326.56;5001435;28;20046;-84
2021/07/16 12:15:06;;;;;;;11.93;10.73;;;;;;;36.52;24.31;99287.22;4964019;28;20050;-83
2021/07/16 12:17:40;;;;;;;13.02;11.63;;;;;;;35.74;23.97;99182.38;4943574;28;20034;-85
2021/07/16 12:20:24;;;;;;;;;;;;;;;;;;;;;
2021/07/16 12:23:16;;;;;;;11.70;9.70;;;;;;;35.83;23.89;99231.78;4979538;28;20119;-82
2021/07/16 12:25:48;;;;;;;;;;;;;;;36.26;24.11;99310.31;4982007;28;20088;-84
2021/07/16 12:28:21;;;;;;;13.70;12.40;;;;;;;35.40;24.00;99173.00;4979123;28;19922;-82
2021/07/16 12:31:00;;;;;;;10.75;9.65;;;;;;;36.13;24.02;99307.44;4979650;28;20102;-83
2021/07/16 12:37:41;;;;;;;9.95;8.95;;;;;;;35.86;24.16;99312.56;4970070;28;20121;-84
2021/07/16 12:44:31;;;;;;;9.20;7.82;;;;;;;35.55;23.61;99324.44;4937344;29;20083;-81
2021/07/16 12:55:22;;;;;;;13.05;8.85;;;;;;;34.68;24.28;99216.75;4976997;28;20054;-81
2021/07/16 12:58:20;;;;;;;9.60;8.57;;;;;;;34.82;24.23;99250.19;5017192;28;20034;-82
2021/07/16 13:01:01;;;;;;;8.68;7.88;;;;;;;35.16;24.38;99306.63;5016243;28;20050;-84
2021/07/16 13:07:39;;;;;;;10.00;7.70;;;;;;;34.43;24.43;99220.72;4979067;28;20048;-81
2021/07/16 13:10:58;;;;;;;7.90;7.20;;;;;;;34.90;24.64;99307.88;4998203;28;20065;-83
2021/07/16 13:14:03;;;;;;;9.13;8.20;;;;;;;34.71;24.96;99307.38;4975773;28;20072;-81
2021/07/16 13:16:32;;;;;;;8.48;7.63;;;;;;;33.68;25.13;99183.47;4981028;28;20046;-83
2021/07/16 13:18:59;;;;;;;8.68;7.78;;;;;;;33.54;25.99;99160.00;5020169;28;20392;-83
2021/07/16 13:21:27;;;;;;;8.93;8.02;;;;;;;34.31;26.13;99304.81;4992119;28;20040;-82
2021/07/16 13:23:56;;;;;;;8.63;7.75;;;;;;;34.04;26.18;99249.53;5005038;28;20049;-82
2021/07/16 13:30:34;;;;;;;8.20;7.40;;;;;;;33.32;26.26;99147.09;4971817;28;20049;-83
2021/07/16 13:33:13;;;;;;;8.15;7.35;;;;;;;33.59;26.13;99200.72;5026137;28;20048;-83
2021/07/16 13:36:00;;;;;;;;;;;;;;;;;;;;;
2021/07/16 13:39:02;;;;;;;10.13;9.10;;;;;;;33.38;26.48;99169.00;5041096;28;20477;-84
2021/07/16 13:41:41;;;;;;;11.82;10.63;;;;;;;33.54;26.30;99195.03;5010417;28;20041;-85
2021/07/16 13:44:27;;;;;;;14.23;11.15;;;;;;;33.25;26.72;99154.22;5019577;28;20037;-82
2021/07/16 13:47:09;;;;;;;19.25;17.35;;;;;;;33.97;26.86;99272.84;5038985;28;20079;-83
2021/07/16 13:49:45;;;;;;;12.27;11.00;;;;;;;33.59;27.36;99214.19;5020059;28;20038;-83
2021/07/16 13:52:18;;;;;;;17.95;16.17;;;;;;;33.69;26.65;99236.41;5021626;28;20053;-83
2021/07/16 13:54:50;;;;;;;12.98;11.65;;;;;;;33.91;27.48;99282.47;5040417;28;20053;-84
2021/07/16 13:57:23;;;;;;;12.57;11.25;;;;;;;33.18;26.87;99175.63;5010514;28;20446;-83
2021/07/16 14:00:24;;;;;;;26.40;21.42;;;;;;;33.88;26.89;99289.03;5025180;28;20100;-81
2021/07/16 14:02:57;;;;;;;12.52;11.27;;;;;;;32.90;27.45;99149.16;5023682;28;20046;-83
2021/07/16 14:05:32;;;;;;;30.48;26.35;;;;;;;33.64;27.10;99287.31;5041372;28;20037;-84
2021/07/16 14:08:15;;;;;;;12.75;11.40;;;;;;;33.19;27.59;99216.91;5026371;28;20180;-81
2021/07/16 14:11:03;;;;;;;12.48;11.30;;;;;;;32.96;28.00;99204.19;5022909;28;20045;-84
2021/07/16 14:14:20;;;;;;;18.08;15.70;;;;;;;33.42;27.48;99299.72;5017836;28;20053;-83